sensor_id;sensor_type;location;lat;lon;timestamp;P1;durP1;ratioP1;P2;durP2;ratioP2
70675;SDS011;59069;52.242;20.900;2023-06-22T00:01:57;28.27;;;22.02;;
70675;SDS011;59069;52.242;20.900;2023-06-22T00:04:23;32.40;;;23.02;;
70675;SDS011;59069;52.242;20.900;2023-06-22T00:06:48;34.17;;;23.20;;
70675;SDS011;59069;52.242;20.900;2023-06-22T00:09:14;30.93;;;22.53;;
70675;SDS011;59069;52.242;20.900;2023-06-22T00:11:39;29.77;;;23.30;;
70675;SDS011;59069;52.242;20.900;2023-06-22T00:14:05;29.27;;;22.23;;
70675;SDS011;59069;52.242;20.900;2023-06-22T00:16:31;31.00;;;24.05;;
70675;SDS011;59069;52.242;20.900;2023-06-22T00:18:57;34.88;;;26.15;;
70675;SDS011;59069;52.242;20.900;2023-06-22T00:21:27;31.30;;;21.90;;
70675;SDS011;59069;52.242;20.900;2023-06-22T00:23:53;29.88;;;22.80;;
70675;SDS011;59069;52.242;20.900;2023-06-22T00:26:18;29.13;;;22.73;;
70675;SDS011;59069;52.242;20.900;2023-06-22T00:28:44;28.92;;;22.73;;
70675;SDS011;59069;52.242;20.900;2023-06-22T00:31:09;28.90;;;22.37;;
70675;SDS011;59069;52.242;20.900;2023-06-22T00:33:35;28.27;;;22.20;;
70675;SDS011;59069;52.242;20.900;2023-06-22T00:36:00;32.67;;;22.87;;
70675;SDS011;59069;52.242;20.900;2023-06-22T00:38:28;28.08;;;22.58;;
70675;SDS011;59069;52.242;20.900;2023-06-22T00:40:53;27.53;;;21.30;;
70675;SDS011;59069;52.242;20.900;2023-06-22T00:43:19;29.27;;;20.77;;
70675;SDS011;59069;52.242;20.900;2023-06-22T00:45:44;27.23;;;21.08;;
70675;SDS011;59069;52.242;20.900;2023-06-22T00:48:10;25.17;;;20.63;;
70675;SDS011;59069;52.242;20.900;2023-06-22T00:50:37;30.00;;;22.15;;
70675;SDS011;59069;52.242;20.900;2023-06-22T00:53:04;27.07;;;21.07;;
70675;SDS011;59069;52.242;20.900;2023-06-22T00:55:51;28.90;;;22.10;;
70675;SDS011;59069;52.242;20.900;2023-06-22T00:58:17;30.35;;;21.95;;
70675;SDS011;59069;52.242;20.900;2023-06-22T01:00:46;26.92;;;20.95;;
70675;SDS011;59069;52.242;20.900;2023-06-22T01:03:12;29.57;;;22.43;;
70675;SDS011;59069;52.242;20.900;2023-06-22T01:05:38;29.27;;;22.55;;
70675;SDS011;59069;52.242;20.900;2023-06-22T01:16:25;29.52;;;22.50;;
70675;SDS011;59069;52.242;20.900;2023-06-22T01:18:55;29.13;;;22.73;;
70675;SDS011;59069;52.242;20.900;2023-06-22T01:21:23;28.35;;;22.83;;
70675;SDS011;59069;52.242;20.900;2023-06-22T01:23:58;27.97;;;21.53;;
70675;SDS011;59069;52.242;20.900;2023-06-22T01:29:06;28.75;;;22.00;;
70675;SDS011;59069;52.242;20.900;2023-06-22T01:31:36;34.83;;;23.98;;
70675;SDS011;59069;52.242;20.900;2023-06-22T01:34:05;30.27;;;23.38;;
70675;SDS011;59069;52.242;20.900;2023-06-22T01:36:32;29.80;;;23.53;;
70675;SDS011;59069;52.242;20.900;2023-06-22T01:38:58;32.55;;;24.65;;
70675;SDS011;59069;52.242;20.900;2023-06-22T01:41:27;33.75;;;25.13;;
70675;SDS011;59069;52.242;20.900;2023-06-22T01:43:54;31.48;;;24.67;;
70675;SDS011;59069;52.242;20.900;2023-06-22T01:46:21;32.37;;;24.43;;
70675;SDS011;59069;52.242;20.900;2023-06-22T01:48:47;31.80;;;24.42;;
70675;SDS011;59069;52.242;20.900;2023-06-22T01:51:12;34.20;;;25.57;;
70675;SDS011;59069;52.242;20.900;2023-06-22T01:53:38;34.67;;;24.98;;
70675;SDS011;59069;52.242;20.900;2023-06-22T01:56:04;32.97;;;25.33;;
70675;SDS011;59069;52.242;20.900;2023-06-22T01:58:29;37.03;;;26.30;;
70675;SDS011;59069;52.242;20.900;2023-06-22T02:00:57;30.42;;;25.20;;
70675;SDS011;59069;52.242;20.900;2023-06-22T02:03:31;34.20;;;25.17;;
70675;SDS011;59069;52.242;20.900;2023-06-22T02:06:15;33.05;;;24.35;;
70675;SDS011;59069;52.242;20.900;2023-06-22T02:08:46;32.95;;;24.30;;
70675;SDS011;59069;52.242;20.900;2023-06-22T02:11:19;33.90;;;24.73;;
70675;SDS011;59069;52.242;20.900;2023-06-22T02:13:46;31.85;;;25.35;;
70675;SDS011;59069;52.242;20.900;2023-06-22T02:16:12;33.57;;;25.73;;
70675;SDS011;59069;52.242;20.900;2023-06-22T02:18:39;34.15;;;25.55;;
70675;SDS011;59069;52.242;20.900;2023-06-22T02:21:11;37.50;;;27.85;;
70675;SDS011;59069;52.242;20.900;2023-06-22T02:23:36;35.47;;;28.07;;
70675;SDS011;59069;52.242;20.900;2023-06-22T02:26:02;35.03;;;26.87;;
70675;SDS011;59069;52.242;20.900;2023-06-22T02:28:28;38.05;;;27.27;;
70675;SDS011;59069;52.242;20.900;2023-06-22T02:30:53;42.17;;;29.20;;
70675;SDS011;59069;52.242;20.900;2023-06-22T02:33:18;39.72;;;29.50;;
70675;SDS011;59069;52.242;20.900;2023-06-22T02:35:44;37.93;;;28.63;;
70675;SDS011;59069;52.242;20.900;2023-06-22T02:38:12;40.20;;;31.02;;
70675;SDS011;59069;52.242;20.900;2023-06-22T02:40:38;41.78;;;30.58;;
70675;SDS011;59069;52.242;20.900;2023-06-22T02:43:05;51.20;;;33.77;;
70675;SDS011;59069;52.242;20.900;2023-06-22T02:45:30;51.83;;;33.97;;
70675;SDS011;59069;52.242;20.900;2023-06-22T02:47:56;55.97;;;35.37;;
70675;SDS011;59069;52.242;20.900;2023-06-22T02:50:21;54.43;;;34.47;;
70675;SDS011;59069;52.242;20.900;2023-06-22T02:52:47;54.63;;;35.45;;
70675;SDS011;59069;52.242;20.900;2023-06-22T02:55:12;62.63;;;36.93;;
70675;SDS011;59069;52.242;20.900;2023-06-22T02:57:37;58.93;;;36.33;;
70675;SDS011;59069;52.242;20.900;2023-06-22T03:00:08;62.55;;;36.25;;
70675;SDS011;59069;52.242;20.900;2023-06-22T03:02:45;59.23;;;37.13;;
70675;SDS011;59069;52.242;20.900;2023-06-22T03:05:12;61.65;;;36.97;;
70675;SDS011;59069;52.242;20.900;2023-06-22T03:07:43;57.92;;;37.08;;
70675;SDS011;59069;52.242;20.900;2023-06-22T03:10:10;56.65;;;37.30;;
70675;SDS011;59069;52.242;20.900;2023-06-22T03:12:36;59.03;;;37.50;;
70675;SDS011;59069;52.242;20.900;2023-06-22T03:15:03;58.43;;;36.50;;
70675;SDS011;59069;52.242;20.900;2023-06-22T03:17:30;57.90;;;36.95;;
70675;SDS011;59069;52.242;20.900;2023-06-22T03:19:55;55.57;;;36.63;;
70675;SDS011;59069;52.242;20.900;2023-06-22T03:22:21;55.10;;;36.95;;
70675;SDS011;59069;52.242;20.900;2023-06-22T03:24:46;54.00;;;36.30;;
70675;SDS011;59069;52.242;20.900;2023-06-22T03:27:11;55.97;;;36.73;;
70675;SDS011;59069;52.242;20.900;2023-06-22T03:29:37;52.67;;;35.42;;
70675;SDS011;59069;52.242;20.900;2023-06-22T03:32:03;52.80;;;35.20;;
70675;SDS011;59069;52.242;20.900;2023-06-22T03:34:30;53.38;;;34.42;;
70675;SDS011;59069;52.242;20.900;2023-06-22T03:36:59;52.22;;;35.15;;
70675;SDS011;59069;52.242;20.900;2023-06-22T03:39:25;49.13;;;33.47;;
70675;SDS011;59069;52.242;20.900;2023-06-22T03:41:50;47.47;;;33.57;;
70675;SDS011;59069;52.242;20.900;2023-06-22T03:44:15;48.45;;;32.42;;
70675;SDS011;59069;52.242;20.900;2023-06-22T03:46:41;48.33;;;31.70;;
70675;SDS011;59069;52.242;20.900;2023-06-22T03:49:06;49.83;;;33.03;;
70675;SDS011;59069;52.242;20.900;2023-06-22T03:51:32;46.20;;;30.73;;
70675;SDS011;59069;52.242;20.900;2023-06-22T03:53:57;51.67;;;32.17;;
70675;SDS011;59069;52.242;20.900;2023-06-22T03:56:23;46.63;;;31.20;;
70675;SDS011;59069;52.242;20.900;2023-06-22T03:58:48;46.23;;;32.07;;
70675;SDS011;59069;52.242;20.900;2023-06-22T04:01:14;46.28;;;30.98;;
70675;SDS011;59069;52.242;20.900;2023-06-22T04:03:41;45.35;;;31.20;;
70675;SDS011;59069;52.242;20.900;2023-06-22T04:06:07;44.90;;;31.00;;
70675;SDS011;59069;52.242;20.900;2023-06-22T04:08:33;45.73;;;31.63;;
70675;SDS011;59069;52.242;20.900;2023-06-22T04:10:58;44.10;;;30.23;;
70675;SDS011;59069;52.242;20.900;2023-06-22T04:13:23;42.70;;;29.10;;
70675;SDS011;59069;52.242;20.900;2023-06-22T04:15:49;47.00;;;30.17;;
70675;SDS011;59069;52.242;20.900;2023-06-22T04:18:14;45.10;;;31.20;;
70675;SDS011;59069;52.242;20.900;2023-06-22T04:20:40;45.13;;;30.13;;
70675;SDS011;59069;52.242;20.900;2023-06-22T04:23:05;45.95;;;29.65;;
70675;SDS011;59069;52.242;20.900;2023-06-22T04:25:30;42.83;;;29.50;;
70675;SDS011;59069;52.242;20.900;2023-06-22T04:27:56;42.40;;;29.97;;
70675;SDS011;59069;52.242;20.900;2023-06-22T04:30:21;45.07;;;30.43;;
70675;SDS011;59069;52.242;20.900;2023-06-22T04:32:47;41.25;;;29.63;;
70675;SDS011;59069;52.242;20.900;2023-06-22T04:35:21;42.92;;;28.90;;
70675;SDS011;59069;52.242;20.900;2023-06-22T04:37:47;45.93;;;28.53;;
70675;SDS011;59069;52.242;20.900;2023-06-22T04:40:13;40.53;;;28.10;;
70675;SDS011;59069;52.242;20.900;2023-06-22T04:42:39;39.92;;;27.33;;
70675;SDS011;59069;52.242;20.900;2023-06-22T04:45:05;39.97;;;28.23;;
70675;SDS011;59069;52.242;20.900;2023-06-22T04:47:30;41.38;;;26.25;;
70675;SDS011;59069;52.242;20.900;2023-06-22T04:49:56;39.10;;;26.23;;
70675;SDS011;59069;52.242;20.900;2023-06-22T04:52:21;39.17;;;25.27;;
70675;SDS011;59069;52.242;20.900;2023-06-22T04:54:46;37.13;;;26.53;;
70675;SDS011;59069;52.242;20.900;2023-06-22T04:57:20;40.25;;;25.77;;
70675;SDS011;59069;52.242;20.900;2023-06-22T04:59:45;36.05;;;23.77;;
70675;SDS011;59069;52.242;20.900;2023-06-22T05:02:11;36.20;;;25.50;;
70675;SDS011;59069;52.242;20.900;2023-06-22T05:04:36;34.70;;;23.80;;
70675;SDS011;59069;52.242;20.900;2023-06-22T05:07:03;40.83;;;25.70;;
70675;SDS011;59069;52.242;20.900;2023-06-22T05:09:29;34.17;;;24.58;;
70675;SDS011;59069;52.242;20.900;2023-06-22T05:11:55;32.73;;;23.23;;
70675;SDS011;59069;52.242;20.900;2023-06-22T05:14:24;34.20;;;24.23;;
70675;SDS011;59069;52.242;20.900;2023-06-22T05:16:50;35.10;;;23.63;;
70675;SDS011;59069;52.242;20.900;2023-06-22T05:19:17;32.95;;;23.85;;
70675;SDS011;59069;52.242;20.900;2023-06-22T05:21:42;34.33;;;23.83;;
70675;SDS011;59069;52.242;20.900;2023-06-22T05:24:08;33.73;;;22.40;;
70675;SDS011;59069;52.242;20.900;2023-06-22T05:26:33;34.03;;;22.67;;
70675;SDS011;59069;52.242;20.900;2023-06-22T05:29:00;30.08;;;21.52;;
70675;SDS011;59069;52.242;20.900;2023-06-22T05:31:27;31.63;;;21.48;;
70675;SDS011;59069;52.242;20.900;2023-06-22T05:33:53;28.48;;;20.88;;
70675;SDS011;59069;52.242;20.900;2023-06-22T05:36:19;37.33;;;21.83;;
70675;SDS011;59069;52.242;20.900;2023-06-22T05:38:46;31.65;;;21.45;;
70675;SDS011;59069;52.242;20.900;2023-06-22T05:41:12;31.38;;;21.30;;
70675;SDS011;59069;52.242;20.900;2023-06-22T05:43:38;29.25;;;20.48;;
70675;SDS011;59069;52.242;20.900;2023-06-22T05:46:04;30.23;;;20.87;;
70675;SDS011;59069;52.242;20.900;2023-06-22T05:48:30;28.85;;;19.92;;
70675;SDS011;59069;52.242;20.900;2023-06-22T05:50:55;27.10;;;19.03;;
70675;SDS011;59069;52.242;20.900;2023-06-22T05:53:21;30.70;;;19.95;;
70675;SDS011;59069;52.242;20.900;2023-06-22T05:55:47;33.03;;;21.13;;
70675;SDS011;59069;52.242;20.900;2023-06-22T05:58:12;28.35;;;19.55;;
70675;SDS011;59069;52.242;20.900;2023-06-22T06:00:38;29.30;;;20.03;;
70675;SDS011;59069;52.242;20.900;2023-06-22T06:03:05;30.80;;;21.65;;
70675;SDS011;59069;52.242;20.900;2023-06-22T06:05:32;32.78;;;19.95;;
70675;SDS011;59069;52.242;20.900;2023-06-22T06:07:58;27.73;;;18.83;;
70675;SDS011;59069;52.242;20.900;2023-06-22T06:10:24;28.13;;;18.53;;
70675;SDS011;59069;52.242;20.900;2023-06-22T06:12:50;26.48;;;18.77;;
70675;SDS011;59069;52.242;20.900;2023-06-22T06:15:16;25.30;;;18.20;;
70675;SDS011;59069;52.242;20.900;2023-06-22T06:17:48;24.95;;;17.60;;
70675;SDS011;59069;52.242;20.900;2023-06-22T06:20:14;28.90;;;19.05;;
70675;SDS011;59069;52.242;20.900;2023-06-22T06:22:44;24.47;;;16.50;;
70675;SDS011;59069;52.242;20.900;2023-06-22T06:25:09;23.30;;;15.77;;
70675;SDS011;59069;52.242;20.900;2023-06-22T06:27:35;23.97;;;16.47;;
70675;SDS011;59069;52.242;20.900;2023-06-22T06:30:00;23.23;;;15.90;;
70675;SDS011;59069;52.242;20.900;2023-06-22T06:32:25;24.23;;;16.03;;
70675;SDS011;59069;52.242;20.900;2023-06-22T06:34:51;24.10;;;16.20;;
70675;SDS011;59069;52.242;20.900;2023-06-22T06:37:16;20.90;;;14.93;;
70675;SDS011;59069;52.242;20.900;2023-06-22T06:39:43;25.92;;;15.10;;
70675;SDS011;59069;52.242;20.900;2023-06-22T06:42:09;21.97;;;14.90;;
70675;SDS011;59069;52.242;20.900;2023-06-22T06:44:36;19.70;;;14.50;;
70675;SDS011;59069;52.242;20.900;2023-06-22T06:47:02;19.65;;;13.27;;
70675;SDS011;59069;52.242;20.900;2023-06-22T06:49:28;24.17;;;14.33;;
70675;SDS011;59069;52.242;20.900;2023-06-22T06:51:54;19.70;;;12.02;;
70675;SDS011;59069;52.242;20.900;2023-06-22T06:54:20;17.47;;;11.53;;
70675;SDS011;59069;52.242;20.900;2023-06-22T06:56:46;17.70;;;11.85;;
70675;SDS011;59069;52.242;20.900;2023-06-22T06:59:13;16.98;;;11.27;;
70675;SDS011;59069;52.242;20.900;2023-06-22T07:01:41;18.73;;;11.03;;
70675;SDS011;59069;52.242;20.900;2023-06-22T07:04:07;17.77;;;10.75;;
70675;SDS011;59069;52.242;20.900;2023-06-22T07:06:32;14.40;;;9.97;;
70675;SDS011;59069;52.242;20.900;2023-06-22T07:08:58;15.00;;;9.70;;
70675;SDS011;59069;52.242;20.900;2023-06-22T07:11:24;14.23;;;9.88;;
70675;SDS011;59069;52.242;20.900;2023-06-22T07:13:50;14.43;;;9.63;;
70675;SDS011;59069;52.242;20.900;2023-06-22T07:16:15;12.77;;;9.07;;
70675;SDS011;59069;52.242;20.900;2023-06-22T07:18:40;13.87;;;8.60;;
70675;SDS011;59069;52.242;20.900;2023-06-22T07:21:06;13.00;;;8.53;;
70675;SDS011;59069;52.242;20.900;2023-06-22T07:23:32;12.60;;;8.38;;
70675;SDS011;59069;52.242;20.900;2023-06-22T07:25:57;16.75;;;8.88;;
70675;SDS011;59069;52.242;20.900;2023-06-22T07:28:26;16.93;;;8.17;;
70675;SDS011;59069;52.242;20.900;2023-06-22T07:30:52;11.25;;;7.80;;
70675;SDS011;59069;52.242;20.900;2023-06-22T07:33:17;12.37;;;7.80;;
70675;SDS011;59069;52.242;20.900;2023-06-22T07:35:43;13.40;;;8.37;;
70675;SDS011;59069;52.242;20.900;2023-06-22T07:38:09;12.98;;;8.80;;
70675;SDS011;59069;52.242;20.900;2023-06-22T07:40:34;12.23;;;6.93;;
70675;SDS011;59069;52.242;20.900;2023-06-22T07:43:00;12.40;;;6.65;;
70675;SDS011;59069;52.242;20.900;2023-06-22T07:45:25;10.67;;;6.33;;
70675;SDS011;59069;52.242;20.900;2023-06-22T07:47:51;9.73;;;6.30;;
70675;SDS011;59069;52.242;20.900;2023-06-22T07:50:16;12.97;;;6.57;;
70675;SDS011;59069;52.242;20.900;2023-06-22T07:52:42;12.30;;;6.00;;
70675;SDS011;59069;52.242;20.900;2023-06-22T07:55:07;11.53;;;7.27;;
70675;SDS011;59069;52.242;20.900;2023-06-22T07:57:33;12.23;;;7.43;;
70675;SDS011;59069;52.242;20.900;2023-06-22T07:59:59;12.48;;;6.70;;
70675;SDS011;59069;52.242;20.900;2023-06-22T08:02:25;16.38;;;6.78;;
70675;SDS011;59069;52.242;20.900;2023-06-22T08:04:51;9.77;;;6.27;;
70675;SDS011;59069;52.242;20.900;2023-06-22T08:07:16;11.98;;;6.80;;
70675;SDS011;59069;52.242;20.900;2023-06-22T08:09:46;11.23;;;5.70;;
70675;SDS011;59069;52.242;20.900;2023-06-22T08:12:13;12.68;;;6.30;;
70675;SDS011;59069;52.242;20.900;2023-06-22T08:14:38;13.30;;;6.30;;
70675;SDS011;59069;52.242;20.900;2023-06-22T08:17:04;12.17;;;5.87;;
70675;SDS011;59069;52.242;20.900;2023-06-22T08:19:30;11.80;;;5.50;;
70675;SDS011;59069;52.242;20.900;2023-06-22T08:21:56;10.17;;;5.27;;
70675;SDS011;59069;52.242;20.900;2023-06-22T08:24:22;9.77;;;5.28;;
70675;SDS011;59069;52.242;20.900;2023-06-22T08:26:47;9.33;;;5.47;;
70675;SDS011;59069;52.242;20.900;2023-06-22T08:29:12;9.43;;;5.33;;
70675;SDS011;59069;52.242;20.900;2023-06-22T08:31:38;13.87;;;5.73;;
70675;SDS011;59069;52.242;20.900;2023-06-22T08:34:03;10.70;;;5.38;;
70675;SDS011;59069;52.242;20.900;2023-06-22T08:36:29;10.43;;;5.80;;
70675;SDS011;59069;52.242;20.900;2023-06-22T08:38:57;13.40;;;6.13;;
70675;SDS011;59069;52.242;20.900;2023-06-22T08:41:27;8.80;;;5.60;;
70675;SDS011;59069;52.242;20.900;2023-06-22T08:43:53;15.07;;;5.40;;
70675;SDS011;59069;52.242;20.900;2023-06-22T08:46:18;11.13;;;5.65;;
70675;SDS011;59069;52.242;20.900;2023-06-22T08:48:48;8.50;;;5.23;;
70675;SDS011;59069;52.242;20.900;2023-06-22T08:51:15;14.43;;;5.47;;
70675;SDS011;59069;52.242;20.900;2023-06-22T08:53:40;10.67;;;4.77;;
70675;SDS011;59069;52.242;20.900;2023-06-22T08:56:06;9.27;;;4.40;;
70675;SDS011;59069;52.242;20.900;2023-06-22T08:58:31;9.67;;;4.83;;
70675;SDS011;59069;52.242;20.900;2023-06-22T09:03:33;9.32;;;4.45;;
70675;SDS011;59069;52.242;20.900;2023-06-22T09:06:01;10.83;;;4.27;;
70675;SDS011;59069;52.242;20.900;2023-06-22T09:08:26;8.27;;;4.32;;
70675;SDS011;59069;52.242;20.900;2023-06-22T09:10:52;7.53;;;4.50;;
70675;SDS011;59069;52.242;20.900;2023-06-22T09:13:17;7.43;;;4.30;;
70675;SDS011;59069;52.242;20.900;2023-06-22T09:15:43;8.50;;;4.40;;
70675;SDS011;59069;52.242;20.900;2023-06-22T09:18:10;10.30;;;4.40;;
70675;SDS011;59069;52.242;20.900;2023-06-22T09:20:36;7.95;;;4.50;;
70675;SDS011;59069;52.242;20.900;2023-06-22T09:23:01;8.10;;;4.10;;
70675;SDS011;59069;52.242;20.900;2023-06-22T09:25:27;7.67;;;3.80;;
70675;SDS011;59069;52.242;20.900;2023-06-22T09:27:52;10.00;;;4.78;;
70675;SDS011;59069;52.242;20.900;2023-06-22T09:30:18;8.83;;;4.17;;
70675;SDS011;59069;52.242;20.900;2023-06-22T09:32:44;9.53;;;4.87;;
70675;SDS011;59069;52.242;20.900;2023-06-22T09:35:09;7.25;;;3.90;;
70675;SDS011;59069;52.242;20.900;2023-06-22T09:37:35;8.47;;;3.87;;
70675;SDS011;59069;52.242;20.900;2023-06-22T09:40:01;8.77;;;4.22;;
70675;SDS011;59069;52.242;20.900;2023-06-22T09:42:32;10.20;;;4.10;;
70675;SDS011;59069;52.242;20.900;2023-06-22T09:44:59;9.57;;;3.67;;
70675;SDS011;59069;52.242;20.900;2023-06-22T09:47:24;9.70;;;4.03;;
70675;SDS011;59069;52.242;20.900;2023-06-22T09:49:49;7.30;;;3.65;;
70675;SDS011;59069;52.242;20.900;2023-06-22T09:52:15;6.97;;;3.40;;
70675;SDS011;59069;52.242;20.900;2023-06-22T09:54:41;10.45;;;4.13;;
70675;SDS011;59069;52.242;20.900;2023-06-22T09:57:06;7.20;;;3.73;;
70675;SDS011;59069;52.242;20.900;2023-06-22T09:59:32;8.83;;;4.20;;
70675;SDS011;59069;52.242;20.900;2023-06-22T10:01:57;10.33;;;4.53;;
70675;SDS011;59069;52.242;20.900;2023-06-22T10:04:22;11.25;;;4.22;;
70675;SDS011;59069;52.242;20.900;2023-06-22T10:06:49;14.60;;;4.90;;
70675;SDS011;59069;52.242;20.900;2023-06-22T10:09:15;9.17;;;4.03;;
70675;SDS011;59069;52.242;20.900;2023-06-22T10:11:40;11.53;;;4.90;;
70675;SDS011;59069;52.242;20.900;2023-06-22T10:14:05;9.03;;;4.10;;
70675;SDS011;59069;52.242;20.900;2023-06-22T10:16:31;8.43;;;4.23;;
70675;SDS011;59069;52.242;20.900;2023-06-22T10:18:57;8.75;;;4.40;;
70675;SDS011;59069;52.242;20.900;2023-06-22T10:21:22;10.48;;;4.00;;
70675;SDS011;59069;52.242;20.900;2023-06-22T10:23:48;8.07;;;3.90;;
70675;SDS011;59069;52.242;20.900;2023-06-22T10:26:13;7.17;;;4.17;;
70675;SDS011;59069;52.242;20.900;2023-06-22T10:28:38;7.80;;;4.33;;
70675;SDS011;59069;52.242;20.900;2023-06-22T10:31:04;16.10;;;4.50;;
70675;SDS011;59069;52.242;20.900;2023-06-22T10:33:29;8.00;;;4.63;;
70675;SDS011;59069;52.242;20.900;2023-06-22T10:35:55;6.60;;;4.00;;
70675;SDS011;59069;52.242;20.900;2023-06-22T10:38:20;12.77;;;4.87;;
70675;SDS011;59069;52.242;20.900;2023-06-22T10:40:46;10.77;;;4.50;;
70675;SDS011;59069;52.242;20.900;2023-06-22T10:43:11;7.67;;;4.10;;
70675;SDS011;59069;52.242;20.900;2023-06-22T10:45:36;8.87;;;4.47;;
70675;SDS011;59069;52.242;20.900;2023-06-22T10:48:02;8.57;;;4.40;;
70675;SDS011;59069;52.242;20.900;2023-06-22T10:50:27;9.13;;;4.10;;
70675;SDS011;59069;52.242;20.900;2023-06-22T10:52:53;7.25;;;4.03;;
70675;SDS011;59069;52.242;20.900;2023-06-22T10:55:19;9.03;;;4.53;;
70675;SDS011;59069;52.242;20.900;2023-06-22T10:57:44;13.68;;;4.50;;
70675;SDS011;59069;52.242;20.900;2023-06-22T11:00:12;10.33;;;4.67;;
70675;SDS011;59069;52.242;20.900;2023-06-22T11:02:38;14.20;;;4.88;;
70675;SDS011;59069;52.242;20.900;2023-06-22T11:05:04;9.73;;;4.73;;
70675;SDS011;59069;52.242;20.900;2023-06-22T11:07:29;9.27;;;5.10;;
70675;SDS011;59069;52.242;20.900;2023-06-22T11:09:55;11.07;;;5.23;;
70675;SDS011;59069;52.242;20.900;2023-06-22T11:12:20;8.68;;;4.82;;
70675;SDS011;59069;52.242;20.900;2023-06-22T11:14:46;13.90;;;5.13;;
70675;SDS011;59069;52.242;20.900;2023-06-22T11:17:11;7.37;;;4.57;;
70675;SDS011;59069;52.242;20.900;2023-06-22T11:19:36;8.50;;;4.53;;
70675;SDS011;59069;52.242;20.900;2023-06-22T11:22:02;7.37;;;4.40;;
70675;SDS011;59069;52.242;20.900;2023-06-22T11:24:27;8.85;;;4.38;;
70675;SDS011;59069;52.242;20.900;2023-06-22T11:26:53;9.57;;;4.80;;
70675;SDS011;59069;52.242;20.900;2023-06-22T11:29:18;7.77;;;3.80;;
70675;SDS011;59069;52.242;20.900;2023-06-22T11:31:43;10.57;;;4.90;;
70675;SDS011;59069;52.242;20.900;2023-06-22T11:34:09;8.57;;;4.28;;
70675;SDS011;59069;52.242;20.900;2023-06-22T11:36:34;11.03;;;4.47;;
70675;SDS011;59069;52.242;20.900;2023-06-22T11:39:00;8.27;;;4.33;;
70675;SDS011;59069;52.242;20.900;2023-06-22T11:41:26;9.90;;;5.30;;
70675;SDS011;59069;52.242;20.900;2023-06-22T11:43:51;12.13;;;5.27;;
70675;SDS011;59069;52.242;20.900;2023-06-22T11:46:16;9.70;;;4.67;;
70675;SDS011;59069;52.242;20.900;2023-06-22T11:48:42;7.20;;;4.35;;
70675;SDS011;59069;52.242;20.900;2023-06-22T11:51:07;9.87;;;4.60;;
70675;SDS011;59069;52.242;20.900;2023-06-22T11:53:33;9.67;;;4.70;;
70675;SDS011;59069;52.242;20.900;2023-06-22T11:55:59;8.77;;;4.80;;
70675;SDS011;59069;52.242;20.900;2023-06-22T11:58:26;8.30;;;4.18;;
70675;SDS011;59069;52.242;20.900;2023-06-22T12:00:51;8.50;;;4.23;;
70675;SDS011;59069;52.242;20.900;2023-06-22T12:03:17;9.50;;;4.90;;
70675;SDS011;59069;52.242;20.900;2023-06-22T12:05:42;8.93;;;4.15;;
70675;SDS011;59069;52.242;20.900;2023-06-22T12:08:08;10.60;;;4.50;;
70675;SDS011;59069;52.242;20.900;2023-06-22T12:10:34;8.80;;;4.38;;
70675;SDS011;59069;52.242;20.900;2023-06-22T12:12:59;7.03;;;4.00;;
70675;SDS011;59069;52.242;20.900;2023-06-22T12:15:25;8.85;;;4.38;;
70675;SDS011;59069;52.242;20.900;2023-06-22T12:17:51;8.27;;;4.55;;
70675;SDS011;59069;52.242;20.900;2023-06-22T12:20:16;11.60;;;4.30;;
70675;SDS011;59069;52.242;20.900;2023-06-22T12:22:42;7.30;;;3.97;;
70675;SDS011;59069;52.242;20.900;2023-06-22T12:25:08;7.15;;;4.07;;
70675;SDS011;59069;52.242;20.900;2023-06-22T12:27:34;10.30;;;4.30;;
70675;SDS011;59069;52.242;20.900;2023-06-22T12:30:00;9.32;;;4.18;;
70675;SDS011;59069;52.242;20.900;2023-06-22T12:32:25;13.93;;;4.33;;
70675;SDS011;59069;52.242;20.900;2023-06-22T12:34:51;7.80;;;4.28;;
70675;SDS011;59069;52.242;20.900;2023-06-22T12:37:16;9.40;;;3.70;;
70675;SDS011;59069;52.242;20.900;2023-06-22T12:39:42;13.97;;;5.27;;
70675;SDS011;59069;52.242;20.900;2023-06-22T12:42:09;13.05;;;4.97;;
70675;SDS011;59069;52.242;20.900;2023-06-22T12:44:37;11.43;;;4.70;;
70675;SDS011;59069;52.242;20.900;2023-06-22T12:47:03;10.23;;;4.63;;
70675;SDS011;59069;52.242;20.900;2023-06-22T12:49:28;8.95;;;4.60;;
70675;SDS011;59069;52.242;20.900;2023-06-22T12:51:54;8.20;;;4.30;;
70675;SDS011;59069;52.242;20.900;2023-06-22T12:54:19;9.10;;;4.83;;
70675;SDS011;59069;52.242;20.900;2023-06-22T12:56:44;10.67;;;4.73;;
70675;SDS011;59069;52.242;20.900;2023-06-22T12:59:10;8.60;;;4.45;;
70675;SDS011;59069;52.242;20.900;2023-06-22T13:01:36;7.23;;;4.57;;
70675;SDS011;59069;52.242;20.900;2023-06-22T13:04:02;8.32;;;4.60;;
70675;SDS011;59069;52.242;20.900;2023-06-22T13:06:28;7.27;;;4.23;;
70675;SDS011;59069;52.242;20.900;2023-06-22T13:08:53;12.18;;;5.38;;
70675;SDS011;59069;52.242;20.900;2023-06-22T13:11:19;11.53;;;5.00;;
70675;SDS011;59069;52.242;20.900;2023-06-22T13:13:44;7.17;;;3.83;;
70675;SDS011;59069;52.242;20.900;2023-06-22T13:16:10;7.68;;;4.50;;
70675;SDS011;59069;52.242;20.900;2023-06-22T13:18:36;8.23;;;4.28;;
70675;SDS011;59069;52.242;20.900;2023-06-22T13:21:02;7.33;;;4.30;;
70675;SDS011;59069;52.242;20.900;2023-06-22T13:23:28;10.15;;;4.40;;
70675;SDS011;59069;52.242;20.900;2023-06-22T13:25:53;10.57;;;4.17;;
70675;SDS011;59069;52.242;20.900;2023-06-22T13:28:19;9.37;;;4.37;;
70675;SDS011;59069;52.242;20.900;2023-06-22T13:30:45;8.75;;;3.80;;
70675;SDS011;59069;52.242;20.900;2023-06-22T13:33:12;7.38;;;4.38;;
70675;SDS011;59069;52.242;20.900;2023-06-22T13:35:38;8.32;;;4.03;;
70675;SDS011;59069;52.242;20.900;2023-06-22T13:38:03;8.53;;;4.57;;
70675;SDS011;59069;52.242;20.900;2023-06-22T13:40:29;7.30;;;4.33;;
70675;SDS011;59069;52.242;20.900;2023-06-22T13:42:55;7.72;;;4.40;;
70675;SDS011;59069;52.242;20.900;2023-06-22T13:45:21;9.97;;;4.90;;
70675;SDS011;59069;52.242;20.900;2023-06-22T13:47:46;13.98;;;4.85;;
70675;SDS011;59069;52.242;20.900;2023-06-22T13:50:12;10.17;;;4.60;;
70675;SDS011;59069;52.242;20.900;2023-06-22T13:52:40;9.10;;;4.60;;
70675;SDS011;59069;52.242;20.900;2023-06-22T13:55:05;10.60;;;4.77;;
70675;SDS011;59069;52.242;20.900;2023-06-22T13:57:34;16.40;;;5.63;;
70675;SDS011;59069;52.242;20.900;2023-06-22T14:00:00;10.00;;;4.30;;
70675;SDS011;59069;52.242;20.900;2023-06-22T14:02:26;8.83;;;4.50;;
70675;SDS011;59069;52.242;20.900;2023-06-22T14:04:51;8.87;;;4.60;;
70675;SDS011;59069;52.242;20.900;2023-06-22T14:07:16;8.83;;;4.90;;
70675;SDS011;59069;52.242;20.900;2023-06-22T14:09:44;8.65;;;4.85;;
70675;SDS011;59069;52.242;20.900;2023-06-22T14:12:10;8.48;;;5.00;;
70675;SDS011;59069;52.242;20.900;2023-06-22T14:14:35;8.40;;;4.70;;
70675;SDS011;59069;52.242;20.900;2023-06-22T14:17:01;7.60;;;4.38;;
70675;SDS011;59069;52.242;20.900;2023-06-22T14:19:26;9.33;;;4.40;;
70675;SDS011;59069;52.242;20.900;2023-06-22T14:21:52;9.13;;;5.00;;
70675;SDS011;59069;52.242;20.900;2023-06-22T14:24:17;8.43;;;4.67;;
70675;SDS011;59069;52.242;20.900;2023-06-22T14:26:42;10.63;;;5.07;;